createdAt,value
2023-02-13T07:36:36.373Z,22.38
2023-02-13T07:39:04.202Z,26.58
2023-02-13T07:41:31.947Z,22.10
2023-02-13T07:43:59.605Z,24.00
2023-02-13T07:46:27.273Z,25.30
2023-02-13T07:48:54.980Z,23.08
2023-02-13T07:51:25.396Z,22.27
2023-02-13T07:53:53.855Z,28.27
2023-02-13T07:56:22.390Z,20.13
2023-02-13T07:58:50.036Z,23.88
2023-02-13T08:01:19.880Z,29.95
2023-02-13T08:03:51.400Z,25.35
2023-02-13T08:06:19.508Z,25.20
2023-02-13T08:08:47.169Z,22.45
2023-02-13T08:11:52.627Z,20.17
2023-02-13T08:14:21.070Z,20.98
2023-02-13T08:16:49.178Z,18.48
2023-02-13T08:19:17.012Z,20.10
2023-02-13T08:21:44.744Z,22.52
2023-02-13T08:24:12.597Z,20.65
2023-02-13T08:26:40.568Z,22.10
2023-02-13T08:29:08.870Z,20.10
2023-02-13T08:31:36.753Z,19.75
2023-02-13T08:34:04.458Z,20.50
2023-02-13T08:36:32.173Z,23.13
2023-02-13T08:38:59.820Z,19.40
2023-02-13T08:41:27.451Z,21.77
2023-02-13T08:43:55.575Z,24.10
2023-02-13T08:46:23.476Z,15.93
2023-02-13T08:48:51.333Z,19.83
2023-02-13T08:51:18.931Z,23.92
2023-02-13T08:53:46.586Z,25.48
2023-02-13T08:56:14.278Z,22.65
2023-02-13T08:58:41.910Z,24.77
2023-02-13T09:01:09.759Z,24.10
2023-02-13T09:03:37.494Z,18.75
2023-02-13T09:06:05.347Z,18.63
2023-02-13T09:08:33.043Z,19.42
2023-02-13T09:11:01.822Z,20.25
2023-02-13T09:13:30.338Z,18.95
2023-02-13T09:16:01.626Z,21.85
2023-02-13T09:18:29.154Z,22.60
2023-02-13T09:21:14.560Z,25.88
2023-02-13T09:23:42.316Z,19.48
2023-02-13T09:26:15.233Z,18.90
2023-02-13T09:28:42.976Z,23.92
2023-02-13T09:31:15.522Z,22.63
2023-02-13T09:33:44.674Z,19.88
2023-02-13T09:36:14.865Z,23.73
2023-02-13T09:38:44.208Z,22.05
2023-02-13T09:41:19.533Z,23.00
2023-02-13T09:44:07.171Z,27.10
2023-02-13T09:46:39.699Z,28.08
2023-02-13T09:49:16.871Z,22.73
2023-02-13T09:51:45.318Z,22.48
2023-02-13T09:54:16.511Z,19.95
2023-02-13T09:57:15.234Z,22.50
2023-02-13T10:00:03.716Z,22.65
2023-02-13T10:02:51.953Z,22.98
2023-02-13T10:05:44.259Z,21.65
2023-02-13T10:08:20.679Z,27.42
2023-02-13T10:11:20.609Z,23.00
2023-02-13T10:13:58.821Z,29.15
2023-02-13T10:16:33.414Z,28.02
2023-02-13T10:19:28.195Z,25.13
2023-02-13T10:22:02.035Z,25.05
2023-02-13T10:24:38.321Z,26.25
2023-02-13T10:27:24.706Z,28.75
2023-02-13T10:30:07.092Z,27.60
2023-02-13T10:33:15.751Z,31.33
2023-02-13T10:35:56.670Z,27.42
2023-02-13T10:38:24.275Z,25.60
2023-02-13T10:41:17.119Z,33.97
2023-02-13T10:44:06.034Z,30.85
2023-02-13T10:47:01.108Z,27.92
2023-02-13T10:49:36.246Z,29.63
2023-02-13T10:52:30.976Z,30.63
2023-02-13T10:55:21.454Z,28.63
2023-02-13T10:58:15.794Z,34.53
2023-02-13T11:01:01.677Z,28.60
2023-02-13T11:03:30.172Z,28.67
2023-02-13T11:05:59.956Z,30.52
2023-02-13T11:08:43.152Z,30.17
2023-02-13T11:11:32.559Z,29.35
2023-02-13T11:14:26.118Z,26.75
2023-02-13T11:16:58.251Z,29.13
2023-02-13T11:19:39.176Z,28.60
2023-02-13T11:22:14.009Z,27.55
2023-02-13T11:24:58.366Z,32.83
2023-02-13T11:27:32.845Z,29.45
2023-02-13T11:30:24.086Z,31.33
2023-02-13T11:33:17.006Z,28.50
2023-02-13T11:35:46.303Z,25.58
2023-02-13T11:38:24.196Z,26.20
2023-02-13T11:41:08.984Z,26.50
2023-02-13T11:43:46.228Z,30.70
2023-02-13T11:46:14.677Z,26.35
2023-02-13T11:48:44.473Z,22.30
2023-02-13T11:51:11.857Z,27.85
2023-02-13T11:53:40.154Z,26.35
2023-02-13T11:56:13.956Z,22.95
2023-02-13T11:58:42.457Z,20.38
2023-02-13T12:01:21.980Z,23.45
2023-02-13T12:04:18.125Z,24.40
2023-02-13T12:07:03.669Z,28.05
2023-02-13T12:09:32.134Z,25.42
2023-02-13T12:12:04.515Z,23.02
2023-02-13T12:14:39.819Z,20.50
2023-02-13T12:17:31.464Z,26.52
2023-02-13T12:20:00.499Z,21.58
2023-02-13T12:22:57.951Z,25.15
2023-02-13T12:25:43.567Z,27.67
2023-02-13T12:28:31.627Z,21.25
2023-02-13T12:31:27.821Z,22.23
2023-02-13T12:34:12.094Z,28.48
2023-02-13T12:36:46.356Z,29.05
2023-02-13T12:39:33.225Z,30.10
2023-02-13T12:42:33.012Z,27.17
2023-02-13T12:45:31.528Z,28.02
2023-02-13T12:48:28.330Z,21.65
2023-02-13T12:51:01.468Z,20.80
2023-02-13T12:53:47.640Z,23.92
2023-02-13T12:56:26.979Z,22.73
2023-02-13T12:59:03.214Z,26.17
2023-02-13T13:02:09.308Z,26.05
2023-02-13T13:04:48.674Z,24.00
2023-02-13T13:07:47.668Z,23.08
2023-02-13T13:10:47.177Z,21.67
2023-02-13T13:13:35.948Z,21.75
2023-02-13T13:16:30.811Z,22.23
2023-02-13T13:19:10.445Z,16.02
2023-02-13T13:21:41.589Z,15.93
2023-02-13T13:24:29.407Z,19.48
2023-02-13T13:26:58.236Z,15.63
2023-02-13T13:29:32.766Z,15.27
2023-02-13T13:32:08.129Z,16.58
2023-02-13T13:34:38.927Z,14.32
2023-02-13T13:37:12.026Z,17.48
2023-02-13T13:39:58.435Z,17.35
2023-02-13T13:43:01.067Z,16.20
2023-02-13T13:45:46.131Z,14.40
2023-02-13T13:48:31.450Z,16.05
2023-02-13T13:51:00.032Z,17.98
2023-02-13T13:53:27.633Z,14.55
2023-02-13T13:55:58.404Z,15.70
2023-02-13T13:58:32.509Z,16.33
2023-02-13T14:01:21.269Z,13.80
2023-02-13T14:04:21.931Z,14.85
2023-02-13T14:06:52.585Z,14.20
2023-02-13T14:09:41.299Z,16.58
2023-02-13T14:12:27.323Z,16.50
2023-02-13T14:14:58.768Z,16.17
2023-02-13T14:17:44.671Z,13.80
2023-02-13T14:20:36.965Z,14.80
2023-02-13T14:23:36.358Z,11.18
2023-02-13T14:26:16.087Z,13.85
2023-02-13T14:28:49.541Z,8.27
2023-02-13T14:31:16.992Z,18.08
2023-02-13T14:33:44.633Z,20.13
2023-02-13T14:36:23.181Z,19.65
2023-02-13T14:39:27.508Z,15.00
2023-02-13T14:41:54.846Z,16.80
2023-02-13T14:44:41.010Z,18.58
2023-02-13T14:47:33.409Z,15.68
2023-02-13T14:50:03.210Z,21.25
2023-02-13T14:52:37.535Z,13.98
2023-02-13T14:55:13.005Z,19.05
2023-02-13T14:57:47.023Z,22.00
2023-02-13T15:00:28.387Z,21.00
2023-02-13T15:05:51.891Z,23.20
2023-02-13T15:08:26.856Z,24.38
2023-02-13T15:10:57.105Z,23.77
2023-02-13T15:13:33.124Z,22.83
2023-02-13T15:16:02.615Z,25.35
2023-02-13T15:18:52.486Z,24.77
2023-02-13T15:21:33.175Z,17.67
2023-02-13T15:24:00.635Z,17.05
2023-02-13T15:26:29.617Z,25.60
2023-02-13T15:29:17.502Z,25.25
2023-02-13T15:31:52.994Z,23.50
2023-02-13T15:34:22.635Z,23.92
2023-02-13T15:36:50.528Z,21.10
2023-02-13T15:39:20.600Z,25.15
2023-02-13T15:41:50.819Z,23.27
2023-02-13T15:44:22.624Z,23.63
2023-02-13T15:46:52.283Z,23.75
2023-02-13T15:49:24.296Z,21.73
2023-02-13T15:52:01.164Z,20.83
2023-02-13T15:54:33.111Z,18.52
2023-02-13T15:57:06.534Z,18.67
2023-02-13T15:59:39.720Z,23.50
2023-02-13T16:02:23.743Z,25.38
2023-02-13T16:04:54.673Z,19.67
2023-02-13T16:07:22.342Z,24.00
2023-02-13T16:09:49.707Z,110.22
2023-02-13T16:12:26.072Z,58.83
2023-02-13T16:14:57.866Z,58.65
2023-02-13T16:20:12.555Z,47.75
2023-02-13T16:22:48.818Z,40.58
2023-02-13T16:25:18.334Z,36.00
2023-02-13T16:27:52.319Z,33.45
2023-02-13T16:30:41.946Z,32.35
2023-02-13T16:33:15.376Z,33.92
2023-02-13T16:35:51.610Z,26.48
2023-02-13T16:38:39.140Z,32.15
2023-02-13T16:41:30.353Z,30.60
2023-02-13T16:44:05.285Z,25.25
2023-02-13T16:46:39.534Z,25.98
2023-02-13T16:49:09.652Z,33.67
2023-02-13T16:51:38.717Z,30.00
2023-02-13T16:54:12.068Z,29.58
2023-02-13T16:56:41.172Z,28.25
2023-02-13T16:59:17.364Z,29.60
2023-02-13T17:01:44.726Z,25.17
2023-02-13T17:04:22.686Z,32.20
2023-02-13T17:06:55.393Z,28.42
2023-02-13T17:09:23.219Z,24.02
2023-02-13T17:11:52.812Z,35.40
2023-02-13T17:14:20.573Z,30.17
2023-02-13T17:16:48.763Z,28.48
2023-02-13T17:19:16.203Z,33.70
2023-02-13T17:21:43.705Z,28.73
2023-02-13T17:24:18.106Z,31.88
2023-02-13T17:26:45.452Z,26.50
2023-02-13T17:29:12.854Z,28.80
2023-02-13T17:31:40.390Z,31.15
2023-02-13T17:34:07.893Z,28.23
2023-02-13T17:36:35.176Z,27.60
2023-02-13T17:39:02.514Z,28.58
2023-02-13T17:41:29.878Z,30.00
2023-02-13T17:43:57.197Z,27.95
2023-02-13T17:46:24.519Z,30.27
2023-02-13T17:48:52.652Z,34.30
2023-02-13T17:51:20.125Z,26.20
2023-02-13T17:53:47.380Z,29.15
2023-02-13T17:56:14.964Z,32.28
2023-02-13T17:58:42.274Z,29.02
2023-02-13T18:01:11.576Z,37.40
2023-02-13T18:03:40.363Z,38.95
2023-02-13T18:06:12.318Z,36.60
2023-02-13T18:08:39.711Z,40.08
2023-02-13T18:11:11.823Z,45.40
2023-02-13T18:13:44.002Z,40.65
2023-02-13T18:16:11.515Z,39.50
2023-02-13T18:18:39.013Z,38.45
2023-02-13T18:21:06.426Z,38.53
2023-02-13T18:23:33.898Z,35.30
2023-02-13T18:26:10.116Z,42.15
2023-02-13T18:28:38.012Z,40.45
2023-02-13T18:31:05.507Z,41.75
2023-02-13T18:33:32.841Z,40.10
2023-02-13T18:36:01.502Z,46.95
2023-02-13T18:38:29.802Z,41.38
2023-02-13T18:40:57.571Z,41.20
2023-02-13T18:43:25.115Z,49.80
2023-02-13T18:45:52.571Z,40.17
2023-02-13T18:48:20.437Z,49.38
2023-02-13T18:50:47.879Z,38.83
2023-02-13T18:53:15.378Z,43.03
2023-02-13T18:55:42.665Z,42.97
2023-02-13T18:58:09.999Z,41.78
2023-02-13T19:00:37.376Z,37.00
2023-02-13T19:03:04.749Z,41.42
2023-02-13T19:05:32.265Z,42.13
2023-02-13T19:08:00.817Z,42.88
2023-02-13T19:10:28.482Z,38.92
2023-02-13T19:12:55.848Z,44.45
2023-02-13T19:15:23.255Z,39.22
2023-02-13T19:17:50.658Z,42.65
2023-02-13T19:20:18.101Z,42.08
2023-02-13T19:22:45.408Z,42.70
2023-02-13T19:25:12.701Z,41.13
2023-02-13T19:27:40.150Z,44.40
2023-02-13T19:30:09.651Z,45.58
2023-02-13T19:32:37.126Z,43.13
2023-02-13T19:35:04.893Z,46.17
2023-02-13T19:37:43.009Z,39.33
2023-02-13T19:40:13.021Z,45.08
2023-02-13T19:42:40.411Z,42.55
2023-02-13T19:45:08.100Z,37.38
2023-02-13T19:47:36.885Z,47.30
2023-02-13T19:50:04.528Z,45.95
2023-02-13T19:52:31.790Z,48.67
2023-02-13T19:54:59.075Z,55.30
2023-02-13T19:57:26.383Z,57.30
2023-02-13T19:59:53.739Z,50.95
2023-02-13T20:02:21.747Z,56.25
2023-02-13T20:04:49.202Z,62.85
2023-02-13T20:07:16.601Z,64.28
2023-02-13T20:09:44.097Z,60.72
2023-02-13T20:12:11.429Z,56.13
2023-02-13T20:14:38.835Z,53.28
2023-02-13T20:17:07.221Z,55.40
2023-02-13T20:19:34.691Z,53.83
2023-02-13T20:22:02.080Z,49.35
2023-02-13T20:24:29.608Z,45.20
2023-02-13T20:26:58.903Z,55.22
2023-02-13T20:29:26.300Z,49.75
2023-02-13T20:31:54.102Z,53.92
2023-02-13T20:34:21.680Z,45.42
2023-02-13T20:36:49.066Z,50.30
2023-02-13T20:39:16.556Z,45.83
2023-02-13T20:41:48.547Z,44.30
2023-02-13T20:44:19.192Z,49.25
2023-02-13T20:46:47.512Z,45.97
2023-02-13T20:49:20.237Z,41.90
2023-02-13T20:51:48.823Z,45.65
2023-02-13T20:54:17.016Z,45.28
2023-02-13T20:56:46.463Z,46.75
2023-02-13T21:01:58.808Z,48.42
2023-02-13T21:04:29.148Z,47.88
2023-02-13T21:06:56.717Z,40.75
2023-02-13T21:09:24.219Z,47.78
2023-02-13T21:11:51.744Z,44.70
2023-02-13T21:14:19.096Z,51.50
2023-02-13T21:16:46.533Z,42.90
2023-02-13T21:19:17.100Z,51.03
2023-02-13T21:21:44.984Z,46.63
2023-02-13T21:24:15.502Z,52.15
2023-02-13T21:26:44.054Z,47.53
2023-02-13T21:29:11.511Z,48.58
2023-02-13T21:31:44.930Z,45.88
2023-02-13T21:34:13.256Z,49.60
2023-02-13T21:36:41.036Z,49.63
2023-02-13T21:39:10.570Z,49.50
2023-02-13T21:41:42.413Z,48.33
2023-02-13T21:46:38.497Z,43.38
2023-02-13T21:49:08.101Z,50.13
2023-02-13T21:51:36.288Z,48.17
2023-02-13T21:54:04.965Z,55.22
2023-02-13T21:56:35.732Z,51.28
2023-02-13T21:59:04.174Z,53.95
2023-02-13T22:01:45.891Z,46.60
2023-02-13T22:04:13.598Z,48.08
2023-02-13T22:06:41.175Z,53.30
2023-02-13T22:09:13.774Z,52.08
2023-02-13T22:11:41.883Z,48.17
2023-02-13T22:14:15.933Z,48.97
2023-02-13T22:16:44.452Z,49.67
2023-02-13T22:19:14.396Z,51.08
2023-02-13T22:21:42.711Z,51.90
2023-02-13T22:24:10.666Z,41.75
2023-02-13T22:26:41.006Z,46.65
2023-02-13T22:29:11.338Z,51.67
2023-02-13T22:31:39.190Z,51.72
2023-02-13T22:34:07.086Z,46.58
2023-02-13T22:36:38.875Z,51.53
2023-02-13T22:39:07.385Z,48.42
2023-02-13T22:41:34.820Z,50.15
2023-02-13T22:44:02.233Z,51.78
2023-02-13T22:46:31.790Z,45.05
2023-02-13T22:49:00.384Z,46.75
2023-02-13T22:51:33.131Z,47.80
2023-02-13T22:54:01.408Z,44.35
2023-02-13T22:56:29.833Z,53.72
2023-02-13T22:58:57.789Z,50.55
2023-02-13T23:01:27.774Z,46.65
2023-02-13T23:03:56.116Z,45.42
2023-02-13T23:06:24.192Z,48.95
2023-02-13T23:08:55.109Z,49.97
2023-02-13T23:11:43.758Z,45.73
2023-02-13T23:14:12.337Z,47.58
2023-02-13T23:16:59.276Z,45.80
2023-02-13T23:19:27.614Z,43.80
2023-02-13T23:21:55.308Z,52.90
2023-02-13T23:24:22.929Z,46.47
2023-02-13T23:26:50.268Z,48.63
2023-02-13T23:29:17.959Z,46.55
2023-02-13T23:31:45.809Z,44.30
2023-02-13T23:34:13.788Z,47.42
2023-02-13T23:36:41.882Z,38.90
2023-02-13T23:39:09.428Z,38.58
2023-02-13T23:41:36.836Z,38.00
2023-02-13T23:44:04.406Z,42.85
2023-02-13T23:46:31.940Z,44.65
2023-02-13T23:48:59.361Z,39.55
2023-02-13T23:51:26.827Z,36.92
2023-02-13T23:53:56.222Z,38.75
2023-02-13T23:56:24.684Z,36.90
2023-02-13T23:58:52.224Z,35.45
